Callao, Utah
Current Conditions -  °F | °C
As of 6:15 AM on Thursday 30 Oct 2014 (Local Time) from KENV Reporting Station
Clear Clear  
Wind Chill: 36°   Ceiling: Unl
Heat Index: 36°   Visibility: 10mi
Dew Point: 25°   Wind: 3mph
Humidity: 65%   Direction: 90°E
Pressure: 30.26"   Gusts: NA
Location:  40.0375°N, 113.984°W
Report Text: KENV 301215Z AUTO 09003KT 10SM CLR 02/M04 A3026 RMK AO1
Loading
Personal Weather Stations






























Interactive Weather Map
Tropical Storm Tracking
New forecast layout! Learn more

10-Day Weather Forecast

Advertisements
Track Severe Weather on mobile